Aviation Digital Data Service (ADDS)

Output produced by METARs form (1936 UTC 17 July 2018)
found at http://aviationweather.gov/adds/metars/
 
KGLS 171723Z 1718/1818 26005KT P6SM SCT025 
     FM171900 19012KT P6SM SCT040 
     FM180800 23008KT P6SM FEW020 SCT250